sensor_id;sensor_type;location;lat;lon;timestamp;temperature;humidity
2363;DHT22;64265;51.664;7.626;2022-11-04T00:01:26;19.90;99.90
2363;DHT22;64265;51.664;7.626;2022-11-04T00:03:54;19.90;99.90
2363;DHT22;64265;51.664;7.626;2022-11-04T00:06:21;19.80;99.90
2363;DHT22;64265;51.664;7.626;2022-11-04T00:08:49;19.90;99.90
2363;DHT22;64265;51.664;7.626;2022-11-04T00:11:16;19.80;99.90
2363;DHT22;64265;51.664;7.626;2022-11-04T00:14:00;19.80;99.90
2363;DHT22;64265;51.664;7.626;2022-11-04T00:16:26;19.80;99.90
2363;DHT22;64265;51.664;7.626;2022-11-04T00:19:12;19.80;99.90
2363;DHT22;64265;51.664;7.626;2022-11-04T00:21:39;19.80;99.90
2363;DHT22;64265;51.664;7.626;2022-11-04T00:24:23;19.80;99.90
2363;DHT22;64265;51.664;7.626;2022-11-04T00:27:07;19.80;99.90
2363;DHT22;64265;51.664;7.626;2022-11-04T00:29:51;19.70;99.90
2363;DHT22;64265;51.664;7.626;2022-11-04T00:32:18;19.70;99.90
2363;DHT22;64265;51.664;7.626;2022-11-04T00:35:05;19.70;99.90
2363;DHT22;64265;51.664;7.626;2022-11-04T00:37:34;19.70;99.90
2363;DHT22;64265;51.664;7.626;2022-11-04T00:40:01;19.70;99.90
2363;DHT22;64265;51.664;7.626;2022-11-04T00:42:27;19.70;99.90
2363;DHT22;64265;51.664;7.626;2022-11-04T00:44:55;19.70;99.90
2363;DHT22;64265;51.664;7.626;2022-11-04T00:47:22;19.70;99.90
2363;DHT22;64265;51.664;7.626;2022-11-04T00:49:49;19.70;99.90
2363;DHT22;64265;51.664;7.626;2022-11-04T00:52:17;19.70;99.90
2363;DHT22;64265;51.664;7.626;2022-11-04T00:54:44;19.70;99.90
2363;DHT22;64265;51.664;7.626;2022-11-04T00:57:11;19.70;99.90
2363;DHT22;64265;51.664;7.626;2022-11-04T00:59:38;19.60;99.90
2363;DHT22;64265;51.664;7.626;2022-11-04T01:02:05;19.60;99.90
2363;DHT22;64265;51.664;7.626;2022-11-04T01:04:32;19.70;99.90
2363;DHT22;64265;51.664;7.626;2022-11-04T01:06:59;19.60;99.90
2363;DHT22;64265;51.664;7.626;2022-11-04T01:09:27;19.60;99.90
2363;DHT22;64265;51.664;7.626;2022-11-04T01:11:54;19.60;99.90
2363;DHT22;64265;51.664;7.626;2022-11-04T01:14:22;19.60;99.90
2363;DHT22;64265;51.664;7.626;2022-11-04T01:16:49;19.60;99.90
2363;DHT22;64265;51.664;7.626;2022-11-04T01:19:16;19.60;99.90
2363;DHT22;64265;51.664;7.626;2022-11-04T01:21:43;19.60;99.90
2363;DHT22;64265;51.664;7.626;2022-11-04T01:24:09;19.60;99.90
2363;DHT22;64265;51.664;7.626;2022-11-04T01:26:37;19.60;99.90
2363;DHT22;64265;51.664;7.626;2022-11-04T01:29:04;19.50;99.90
2363;DHT22;64265;51.664;7.626;2022-11-04T01:31:31;19.50;99.90
2363;DHT22;64265;51.664;7.626;2022-11-04T01:33:58;19.50;99.90
2363;DHT22;64265;51.664;7.626;2022-11-04T01:36:26;19.50;99.90
2363;DHT22;64265;51.664;7.626;2022-11-04T01:38:54;19.50;99.90
2363;DHT22;64265;51.664;7.626;2022-11-04T01:41:23;19.50;99.90
2363;DHT22;64265;51.664;7.626;2022-11-04T01:43:53;19.50;99.90
2363;DHT22;64265;51.664;7.626;2022-11-04T01:46:26;19.50;99.90
2363;DHT22;64265;51.664;7.626;2022-11-04T01:48:57;19.50;99.90
2363;DHT22;64265;51.664;7.626;2022-11-04T01:51:25;19.40;99.90
2363;DHT22;64265;51.664;7.626;2022-11-04T01:53:54;19.50;99.90
2363;DHT22;64265;51.664;7.626;2022-11-04T01:56:22;19.50;99.90
2363;DHT22;64265;51.664;7.626;2022-11-04T01:58:56;19.40;99.90
2363;DHT22;64265;51.664;7.626;2022-11-04T02:01:27;19.40;99.90
2363;DHT22;64265;51.664;7.626;2022-11-04T02:03:57;19.40;99.90
2363;DHT22;64265;51.664;7.626;2022-11-04T02:06:46;19.40;99.90
2363;DHT22;64265;51.664;7.626;2022-11-04T02:09:13;19.40;99.90
2363;DHT22;64265;51.664;7.626;2022-11-04T02:11:41;19.40;99.90
2363;DHT22;64265;51.664;7.626;2022-11-04T02:14:26;19.40;99.90
2363;DHT22;64265;51.664;7.626;2022-11-04T02:16:56;19.30;99.90
2363;DHT22;64265;51.664;7.626;2022-11-04T02:19:44;19.30;99.90
2363;DHT22;64265;51.664;7.626;2022-11-04T02:25:32;19.30;99.90
2363;DHT22;64265;51.664;7.626;2022-11-04T02:28:19;19.30;99.90
2363;DHT22;64265;51.664;7.626;2022-11-04T02:30:55;19.30;99.90
2363;DHT22;64265;51.664;7.626;2022-11-04T02:33:28;19.30;99.90
2363;DHT22;64265;51.664;7.626;2022-11-04T02:36:01;19.30;99.90
2363;DHT22;64265;51.664;7.626;2022-11-04T02:38:32;19.30;99.90
2363;DHT22;64265;51.664;7.626;2022-11-04T02:41:08;19.30;99.90
2363;DHT22;64265;51.664;7.626;2022-11-04T02:43:47;19.30;99.90
2363;DHT22;64265;51.664;7.626;2022-11-04T02:46:22;19.20;99.90
2363;DHT22;64265;51.664;7.626;2022-11-04T02:48:56;19.20;99.90
2363;DHT22;64265;51.664;7.626;2022-11-04T02:51:27;19.20;99.90
2363;DHT22;64265;51.664;7.626;2022-11-04T02:54:02;19.20;99.90
2363;DHT22;64265;51.664;7.626;2022-11-04T02:56:35;19.20;99.90
2363;DHT22;64265;51.664;7.626;2022-11-04T02:59:05;19.20;99.90
2363;DHT22;64265;51.664;7.626;2022-11-04T03:01:38;19.20;99.90
2363;DHT22;64265;51.664;7.626;2022-11-04T03:04:10;19.20;99.90
2363;DHT22;64265;51.664;7.626;2022-11-04T03:06:37;19.20;99.90
2363;DHT22;64265;51.664;7.626;2022-11-04T03:09:06;19.10;99.90
2363;DHT22;64265;51.664;7.626;2022-11-04T03:11:34;19.10;99.90
2363;DHT22;64265;51.664;7.626;2022-11-04T03:14:04;19.10;99.90
2363;DHT22;64265;51.664;7.626;2022-11-04T03:16:38;19.20;99.90
2363;DHT22;64265;51.664;7.626;2022-11-04T03:19:12;19.10;99.90
2363;DHT22;64265;51.664;7.626;2022-11-04T03:21:44;19.10;99.90
2363;DHT22;64265;51.664;7.626;2022-11-04T03:24:15;19.10;99.90
2363;DHT22;64265;51.664;7.626;2022-11-04T03:26:48;19.10;99.90
2363;DHT22;64265;51.664;7.626;2022-11-04T03:29:21;19.10;99.90
2363;DHT22;64265;51.664;7.626;2022-11-04T03:32:00;19.10;99.90
2363;DHT22;64265;51.664;7.626;2022-11-04T03:34:28;19.10;99.90
2363;DHT22;64265;51.664;7.626;2022-11-04T03:36:55;19.10;99.90
2363;DHT22;64265;51.664;7.626;2022-11-04T03:39:22;19.10;99.90
2363;DHT22;64265;51.664;7.626;2022-11-04T03:41:52;19.10;99.90
2363;DHT22;64265;51.664;7.626;2022-11-04T03:44:21;19.10;99.90
2363;DHT22;64265;51.664;7.626;2022-11-04T03:46:50;19.10;99.90
2363;DHT22;64265;51.664;7.626;2022-11-04T03:49:19;19.10;99.90
2363;DHT22;64265;51.664;7.626;2022-11-04T03:51:46;19.00;99.90
2363;DHT22;64265;51.664;7.626;2022-11-04T03:54:13;19.00;99.90
2363;DHT22;64265;51.664;7.626;2022-11-04T03:56:55;19.00;99.90
2363;DHT22;64265;51.664;7.626;2022-11-04T03:59:39;19.00;99.90
2363;DHT22;64265;51.664;7.626;2022-11-04T04:02:14;19.00;99.90
2363;DHT22;64265;51.664;7.626;2022-11-04T04:04:48;19.00;99.90
2363;DHT22;64265;51.664;7.626;2022-11-04T04:07:20;19.00;99.90
2363;DHT22;64265;51.664;7.626;2022-11-04T04:09:54;19.00;99.90
2363;DHT22;64265;51.664;7.626;2022-11-04T04:12:27;19.00;99.90
2363;DHT22;64265;51.664;7.626;2022-11-04T04:15:00;19.00;99.90
2363;DHT22;64265;51.664;7.626;2022-11-04T04:17:32;18.90;99.90
2363;DHT22;64265;51.664;7.626;2022-11-04T04:20:05;19.00;99.90
2363;DHT22;64265;51.664;7.626;2022-11-04T04:22:36;19.00;99.90
2363;DHT22;64265;51.664;7.626;2022-11-04T04:25:07;18.90;99.90
2363;DHT22;64265;51.664;7.626;2022-11-04T04:28:04;18.90;99.90
2363;DHT22;64265;51.664;7.626;2022-11-04T04:30:31;18.90;99.90
2363;DHT22;64265;51.664;7.626;2022-11-04T04:33:02;18.90;99.90
2363;DHT22;64265;51.664;7.626;2022-11-04T04:35:35;18.90;99.90
2363;DHT22;64265;51.664;7.626;2022-11-04T04:38:14;18.90;99.90
2363;DHT22;64265;51.664;7.626;2022-11-04T04:41:03;18.90;99.90
2363;DHT22;64265;51.664;7.626;2022-11-04T04:43:49;18.90;99.90
2363;DHT22;64265;51.664;7.626;2022-11-04T04:46:51;18.90;99.90
2363;DHT22;64265;51.664;7.626;2022-11-04T04:49:19;18.90;99.90
2363;DHT22;64265;51.664;7.626;2022-11-04T04:51:47;18.80;99.90
2363;DHT22;64265;51.664;7.626;2022-11-04T04:54:14;18.90;99.90
2363;DHT22;64265;51.664;7.626;2022-11-04T04:56:40;18.80;99.90
2363;DHT22;64265;51.664;7.626;2022-11-04T04:59:07;18.80;99.90
2363;DHT22;64265;51.664;7.626;2022-11-04T05:01:34;18.80;99.90
2363;DHT22;64265;51.664;7.626;2022-11-04T05:04:00;18.80;99.90
2363;DHT22;64265;51.664;7.626;2022-11-04T05:06:27;18.80;99.90
2363;DHT22;64265;51.664;7.626;2022-11-04T05:08:55;18.80;99.90
2363;DHT22;64265;51.664;7.626;2022-11-04T05:11:22;18.80;99.90
2363;DHT22;64265;51.664;7.626;2022-11-04T05:13:48;18.80;99.90
2363;DHT22;64265;51.664;7.626;2022-11-04T05:16:15;18.80;99.90
2363;DHT22;64265;51.664;7.626;2022-11-04T05:18:42;18.80;99.90
2363;DHT22;64265;51.664;7.626;2022-11-04T05:21:12;18.80;99.90
2363;DHT22;64265;51.664;7.626;2022-11-04T05:23:39;18.70;99.90
2363;DHT22;64265;51.664;7.626;2022-11-04T05:26:08;18.80;99.90
2363;DHT22;64265;51.664;7.626;2022-11-04T05:28:34;18.70;99.90
2363;DHT22;64265;51.664;7.626;2022-11-04T05:31:02;18.70;99.90
2363;DHT22;64265;51.664;7.626;2022-11-04T05:33:29;18.70;99.90
2363;DHT22;64265;51.664;7.626;2022-11-04T05:36:05;18.70;99.90
2363;DHT22;64265;51.664;7.626;2022-11-04T05:38:31;18.70;99.90
2363;DHT22;64265;51.664;7.626;2022-11-04T05:40:58;18.70;99.90
2363;DHT22;64265;51.664;7.626;2022-11-04T05:43:26;18.70;99.90
2363;DHT22;64265;51.664;7.626;2022-11-04T05:45:53;18.70;99.90
2363;DHT22;64265;51.664;7.626;2022-11-04T05:48:20;18.70;99.90
2363;DHT22;64265;51.664;7.626;2022-11-04T05:50:46;18.70;99.90
2363;DHT22;64265;51.664;7.626;2022-11-04T05:53:13;18.70;99.90
2363;DHT22;64265;51.664;7.626;2022-11-04T05:55:40;18.70;99.90
2363;DHT22;64265;51.664;7.626;2022-11-04T05:58:06;18.70;99.90
2363;DHT22;64265;51.664;7.626;2022-11-04T06:00:35;18.60;99.90
2363;DHT22;64265;51.664;7.626;2022-11-04T06:03:01;18.60;99.90
2363;DHT22;64265;51.664;7.626;2022-11-04T06:05:28;18.60;99.90
2363;DHT22;64265;51.664;7.626;2022-11-04T06:07:55;18.60;99.90
2363;DHT22;64265;51.664;7.626;2022-11-04T06:10:22;18.60;99.90
2363;DHT22;64265;51.664;7.626;2022-11-04T06:12:49;18.60;99.90
2363;DHT22;64265;51.664;7.626;2022-11-04T06:15:15;18.60;99.90
2363;DHT22;64265;51.664;7.626;2022-11-04T06:17:44;18.60;99.90
2363;DHT22;64265;51.664;7.626;2022-11-04T06:20:10;18.60;99.90
2363;DHT22;64265;51.664;7.626;2022-11-04T06:22:37;18.60;99.90
2363;DHT22;64265;51.664;7.626;2022-11-04T06:25:04;18.60;99.90
2363;DHT22;64265;51.664;7.626;2022-11-04T06:27:31;18.60;99.90
2363;DHT22;64265;51.664;7.626;2022-11-04T06:29:57;18.60;99.90
2363;DHT22;64265;51.664;7.626;2022-11-04T06:32:24;18.60;99.90
2363;DHT22;64265;51.664;7.626;2022-11-04T06:34:52;18.60;99.90
2363;DHT22;64265;51.664;7.626;2022-11-04T06:37:19;18.60;99.90
2363;DHT22;64265;51.664;7.626;2022-11-04T06:39:45;18.50;99.90
2363;DHT22;64265;51.664;7.626;2022-11-04T06:42:12;18.50;99.90
2363;DHT22;64265;51.664;7.626;2022-11-04T06:44:39;18.50;99.90
2363;DHT22;64265;51.664;7.626;2022-11-04T06:47:06;18.50;99.90
2363;DHT22;64265;51.664;7.626;2022-11-04T06:49:33;18.50;99.90
2363;DHT22;64265;51.664;7.626;2022-11-04T06:52:01;18.50;99.90
2363;DHT22;64265;51.664;7.626;2022-11-04T06:54:27;18.50;99.90
2363;DHT22;64265;51.664;7.626;2022-11-04T06:56:54;18.50;99.90
2363;DHT22;64265;51.664;7.626;2022-11-04T06:59:21;18.50;99.90
2363;DHT22;64265;51.664;7.626;2022-11-04T07:01:48;18.50;99.90
2363;DHT22;64265;51.664;7.626;2022-11-04T07:04:16;18.50;99.90
2363;DHT22;64265;51.664;7.626;2022-11-04T07:06:44;18.50;99.90
2363;DHT22;64265;51.664;7.626;2022-11-04T07:09:13;18.50;99.90
2363;DHT22;64265;51.664;7.626;2022-11-04T07:11:41;18.50;99.90
2363;DHT22;64265;51.664;7.626;2022-11-04T07:14:08;18.40;99.90
2363;DHT22;64265;51.664;7.626;2022-11-04T07:16:35;18.40;99.90
2363;DHT22;64265;51.664;7.626;2022-11-04T07:19:03;18.40;99.90
2363;DHT22;64265;51.664;7.626;2022-11-04T07:21:30;18.50;99.90
2363;DHT22;64265;51.664;7.626;2022-11-04T07:23:57;18.40;99.90
2363;DHT22;64265;51.664;7.626;2022-11-04T07:26:25;18.50;99.90
2363;DHT22;64265;51.664;7.626;2022-11-04T07:28:52;18.40;99.90
2363;DHT22;64265;51.664;7.626;2022-11-04T07:31:18;18.40;99.90
2363;DHT22;64265;51.664;7.626;2022-11-04T07:33:46;18.50;99.90
2363;DHT22;64265;51.664;7.626;2022-11-04T07:36:15;18.40;99.90
2363;DHT22;64265;51.664;7.626;2022-11-04T07:38:42;18.40;99.90
2363;DHT22;64265;51.664;7.626;2022-11-04T07:41:09;18.40;99.90
2363;DHT22;64265;51.664;7.626;2022-11-04T07:43:37;18.40;99.90
2363;DHT22;64265;51.664;7.626;2022-11-04T07:46:06;18.40;99.90
2363;DHT22;64265;51.664;7.626;2022-11-04T07:48:33;18.40;99.90
2363;DHT22;64265;51.664;7.626;2022-11-04T07:51:01;18.40;99.90
2363;DHT22;64265;51.664;7.626;2022-11-04T07:53:29;18.40;99.90
2363;DHT22;64265;51.664;7.626;2022-11-04T07:55:55;18.40;99.90
2363;DHT22;64265;51.664;7.626;2022-11-04T07:58:22;18.40;99.90
2363;DHT22;64265;51.664;7.626;2022-11-04T08:00:56;18.30;99.90
2363;DHT22;64265;51.664;7.626;2022-11-04T08:03:23;18.40;99.90
2363;DHT22;64265;51.664;7.626;2022-11-04T08:05:54;18.30;99.90
2363;DHT22;64265;51.664;7.626;2022-11-04T08:08:21;18.30;99.90
2363;DHT22;64265;51.664;7.626;2022-11-04T08:10:51;18.30;99.90
2363;DHT22;64265;51.664;7.626;2022-11-04T08:13:17;18.30;99.90
2363;DHT22;64265;51.664;7.626;2022-11-04T08:15:44;18.30;99.90
2363;DHT22;64265;51.664;7.626;2022-11-04T08:18:12;18.30;99.90
2363;DHT22;64265;51.664;7.626;2022-11-04T08:20:39;18.30;99.90
2363;DHT22;64265;51.664;7.626;2022-11-04T08:23:06;18.30;99.90
2363;DHT22;64265;51.664;7.626;2022-11-04T08:25:36;18.30;99.90
2363;DHT22;64265;51.664;7.626;2022-11-04T08:28:03;18.30;99.90
2363;DHT22;64265;51.664;7.626;2022-11-04T08:30:30;18.30;99.90
2363;DHT22;64265;51.664;7.626;2022-11-04T08:32:56;18.30;99.90
2363;DHT22;64265;51.664;7.626;2022-11-04T08:35:25;18.30;99.90
2363;DHT22;64265;51.664;7.626;2022-11-04T08:37:52;18.20;99.90
2363;DHT22;64265;51.664;7.626;2022-11-04T08:40:18;18.30;99.90
2363;DHT22;64265;51.664;7.626;2022-11-04T08:42:45;18.30;99.90
2363;DHT22;64265;51.664;7.626;2022-11-04T08:45:12;18.30;99.90
2363;DHT22;64265;51.664;7.626;2022-11-04T08:47:38;18.30;99.90
2363;DHT22;64265;51.664;7.626;2022-11-04T08:50:06;18.30;99.90
2363;DHT22;64265;51.664;7.626;2022-11-04T08:52:34;18.30;99.90
2363;DHT22;64265;51.664;7.626;2022-11-04T08:55:00;18.30;99.90
2363;DHT22;64265;51.664;7.626;2022-11-04T08:57:27;18.40;99.90
2363;DHT22;64265;51.664;7.626;2022-11-04T08:59:55;18.40;99.90
2363;DHT22;64265;51.664;7.626;2022-11-04T09:02:22;18.40;99.90
2363;DHT22;64265;51.664;7.626;2022-11-04T09:04:49;18.40;99.90
2363;DHT22;64265;51.664;7.626;2022-11-04T09:07:15;18.40;99.90
2363;DHT22;64265;51.664;7.626;2022-11-04T09:09:43;18.40;99.90
2363;DHT22;64265;51.664;7.626;2022-11-04T09:12:10;18.40;99.90
2363;DHT22;64265;51.664;7.626;2022-11-04T09:14:37;18.40;99.90
2363;DHT22;64265;51.664;7.626;2022-11-04T09:17:04;18.40;99.90
2363;DHT22;64265;51.664;7.626;2022-11-04T09:19:30;18.40;99.90
2363;DHT22;64265;51.664;7.626;2022-11-04T09:21:57;18.40;99.90
2363;DHT22;64265;51.664;7.626;2022-11-04T09:24:24;18.40;99.90
2363;DHT22;64265;51.664;7.626;2022-11-04T09:26:52;18.40;99.90
2363;DHT22;64265;51.664;7.626;2022-11-04T09:29:18;18.40;99.90
2363;DHT22;64265;51.664;7.626;2022-11-04T09:31:45;18.40;99.90
2363;DHT22;64265;51.664;7.626;2022-11-04T09:34:14;18.40;99.90
2363;DHT22;64265;51.664;7.626;2022-11-04T09:36:42;18.40;99.90
2363;DHT22;64265;51.664;7.626;2022-11-04T09:39:09;18.50;99.90
2363;DHT22;64265;51.664;7.626;2022-11-04T09:41:54;18.50;99.90
2363;DHT22;64265;51.664;7.626;2022-11-04T09:44:24;18.50;99.90
2363;DHT22;64265;51.664;7.626;2022-11-04T09:46:56;18.50;99.90
2363;DHT22;64265;51.664;7.626;2022-11-04T09:49:26;18.50;99.90
2363;DHT22;64265;51.664;7.626;2022-11-04T09:51:55;18.50;99.90
2363;DHT22;64265;51.664;7.626;2022-11-04T09:54:24;18.50;99.90
2363;DHT22;64265;51.664;7.626;2022-11-04T09:56:55;18.50;99.90
2363;DHT22;64265;51.664;7.626;2022-11-04T09:59:25;18.50;99.90
2363;DHT22;64265;51.664;7.626;2022-11-04T10:02:02;18.50;99.90
2363;DHT22;64265;51.664;7.626;2022-11-04T10:04:42;18.60;99.90
2363;DHT22;64265;51.664;7.626;2022-11-04T10:07:25;18.60;99.90
2363;DHT22;64265;51.664;7.626;2022-11-04T10:10:02;18.60;99.90
2363;DHT22;64265;51.664;7.626;2022-11-04T10:12:43;18.70;99.90
2363;DHT22;64265;51.664;7.626;2022-11-04T10:15:28;18.70;99.90
2363;DHT22;64265;51.664;7.626;2022-11-04T10:18:13;18.70;99.90
2363;DHT22;64265;51.664;7.626;2022-11-04T10:20:48;18.70;99.90
2363;DHT22;64265;51.664;7.626;2022-11-04T10:23:21;18.70;99.90
2363;DHT22;64265;51.664;7.626;2022-11-04T10:25:52;18.70;99.90
2363;DHT22;64265;51.664;7.626;2022-11-04T10:28:27;18.80;99.90
2363;DHT22;64265;51.664;7.626;2022-11-04T10:30:55;18.80;99.90
2363;DHT22;64265;51.664;7.626;2022-11-04T10:33:26;18.90;99.90
2363;DHT22;64265;51.664;7.626;2022-11-04T10:35:56;18.90;99.90
2363;DHT22;64265;51.664;7.626;2022-11-04T10:38:30;18.80;99.90
2363;DHT22;64265;51.664;7.626;2022-11-04T10:40:58;18.70;99.90
2363;DHT22;64265;51.664;7.626;2022-11-04T10:43:30;18.70;99.90
2363;DHT22;64265;51.664;7.626;2022-11-04T10:46:15;18.70;99.90
2363;DHT22;64265;51.664;7.626;2022-11-04T10:48:49;18.70;99.90
2363;DHT22;64265;51.664;7.626;2022-11-04T10:51:17;18.70;99.90
2363;DHT22;64265;51.664;7.626;2022-11-04T10:53:47;18.70;99.90
2363;DHT22;64265;51.664;7.626;2022-11-04T10:56:28;18.70;99.90
2363;DHT22;64265;51.664;7.626;2022-11-04T10:58:59;18.70;99.90
2363;DHT22;64265;51.664;7.626;2022-11-04T11:01:34;18.70;99.90
2363;DHT22;64265;51.664;7.626;2022-11-04T11:04:05;18.70;99.90
2363;DHT22;64265;51.664;7.626;2022-11-04T11:06:34;18.70;99.90
2363;DHT22;64265;51.664;7.626;2022-11-04T11:09:12;18.70;99.90
2363;DHT22;64265;51.664;7.626;2022-11-04T11:11:42;18.70;99.90
2363;DHT22;64265;51.664;7.626;2022-11-04T11:14:31;18.80;99.90
2363;DHT22;64265;51.664;7.626;2022-11-04T11:17:16;18.80;99.90
2363;DHT22;64265;51.664;7.626;2022-11-04T11:19:45;18.80;99.90
2363;DHT22;64265;51.664;7.626;2022-11-04T11:22:28;18.80;99.90
2363;DHT22;64265;51.664;7.626;2022-11-04T11:25:22;18.80;99.90
2363;DHT22;64265;51.664;7.626;2022-11-04T11:27:50;18.80;99.90
2363;DHT22;64265;51.664;7.626;2022-11-04T11:30:21;18.80;99.90
2363;DHT22;64265;51.664;7.626;2022-11-04T11:32:51;18.80;99.90
2363;DHT22;64265;51.664;7.626;2022-11-04T11:35:22;18.80;99.90
2363;DHT22;64265;51.664;7.626;2022-11-04T11:37:51;18.80;99.90
2363;DHT22;64265;51.664;7.626;2022-11-04T11:40:26;18.80;99.90
2363;DHT22;64265;51.664;7.626;2022-11-04T11:42:53;18.90;99.90
2363;DHT22;64265;51.664;7.626;2022-11-04T11:45:23;17.20;99.90
2363;DHT22;64265;51.664;7.626;2022-11-04T11:47:50;16.50;99.90
2363;DHT22;64265;51.664;7.626;2022-11-04T11:50:21;16.20;99.90
2363;DHT22;64265;51.664;7.626;2022-11-04T11:52:51;16.30;99.90
2363;DHT22;64265;51.664;7.626;2022-11-04T11:55:21;17.30;99.90
2363;DHT22;64265;51.664;7.626;2022-11-04T11:57:56;17.80;99.90
2363;DHT22;64265;51.664;7.626;2022-11-04T12:00:29;18.20;99.90
2363;DHT22;64265;51.664;7.626;2022-11-04T12:03:00;18.60;99.90
2363;DHT22;64265;51.664;7.626;2022-11-04T12:05:32;19.00;99.90
2363;DHT22;64265;51.664;7.626;2022-11-04T12:10:59;19.40;99.90
2363;DHT22;64265;51.664;7.626;2022-11-04T12:13:31;19.40;99.90
2363;DHT22;64265;51.664;7.626;2022-11-04T12:16:15;19.60;99.90
2363;DHT22;64265;51.664;7.626;2022-11-04T12:19:11;19.70;99.90
2363;DHT22;64265;51.664;7.626;2022-11-04T12:21:44;19.80;99.90
2363;DHT22;64265;51.664;7.626;2022-11-04T12:24:20;19.80;99.90
2363;DHT22;64265;51.664;7.626;2022-11-04T12:26:58;19.90;99.90
2363;DHT22;64265;51.664;7.626;2022-11-04T12:29:35;19.90;99.90
2363;DHT22;64265;51.664;7.626;2022-11-04T12:32:14;20.00;99.90
2363;DHT22;64265;51.664;7.626;2022-11-04T12:34:54;20.00;99.90
2363;DHT22;64265;51.664;7.626;2022-11-04T12:37:32;20.10;99.90
2363;DHT22;64265;51.664;7.626;2022-11-04T12:40:13;20.20;99.90
2363;DHT22;64265;51.664;7.626;2022-11-04T12:42:55;20.10;99.90
2363;DHT22;64265;51.664;7.626;2022-11-04T12:45:32;20.20;99.90
2363;DHT22;64265;51.664;7.626;2022-11-04T12:48:08;20.30;99.90
2363;DHT22;64265;51.664;7.626;2022-11-04T12:50:50;20.50;99.90
2363;DHT22;64265;51.664;7.626;2022-11-04T12:53:33;20.50;99.90
2363;DHT22;64265;51.664;7.626;2022-11-04T12:56:06;20.60;99.90
2363;DHT22;64265;51.664;7.626;2022-11-04T12:58:47;20.70;99.90
2363;DHT22;64265;51.664;7.626;2022-11-04T13:01:24;20.70;99.90
2363;DHT22;64265;51.664;7.626;2022-11-04T13:03:57;20.70;99.90
2363;DHT22;64265;51.664;7.626;2022-11-04T13:06:27;20.80;99.90
2363;DHT22;64265;51.664;7.626;2022-11-04T13:08:59;20.80;99.90
2363;DHT22;64265;51.664;7.626;2022-11-04T13:11:30;20.90;99.90
2363;DHT22;64265;51.664;7.626;2022-11-04T13:14:02;20.90;99.90
2363;DHT22;64265;51.664;7.626;2022-11-04T13:16:31;20.90;99.90
2363;DHT22;64265;51.664;7.626;2022-11-04T13:19:01;21.00;99.90
2363;DHT22;64265;51.664;7.626;2022-11-04T13:21:32;21.00;99.90
2363;DHT22;64265;51.664;7.626;2022-11-04T13:24:02;21.10;99.90
2363;DHT22;64265;51.664;7.626;2022-11-04T13:26:31;21.10;99.90
2363;DHT22;64265;51.664;7.626;2022-11-04T13:29:02;21.10;99.90
2363;DHT22;64265;51.664;7.626;2022-11-04T13:31:38;21.10;99.90
2363;DHT22;64265;51.664;7.626;2022-11-04T13:34:16;21.20;99.90
2363;DHT22;64265;51.664;7.626;2022-11-04T13:36:46;21.20;99.90
2363;DHT22;64265;51.664;7.626;2022-11-04T13:39:17;21.30;99.90
2363;DHT22;64265;51.664;7.626;2022-11-04T13:42:14;21.30;99.90
2363;DHT22;64265;51.664;7.626;2022-11-04T13:44:47;21.30;99.90
2363;DHT22;64265;51.664;7.626;2022-11-04T13:47:17;21.40;99.90
2363;DHT22;64265;51.664;7.626;2022-11-04T13:49:50;21.40;99.90
2363;DHT22;64265;51.664;7.626;2022-11-04T13:52:18;21.40;99.90
2363;DHT22;64265;51.664;7.626;2022-11-04T13:54:51;21.50;99.90
2363;DHT22;64265;51.664;7.626;2022-11-04T13:57:20;21.50;99.90
2363;DHT22;64265;51.664;7.626;2022-11-04T14:00:17;21.50;99.90
2363;DHT22;64265;51.664;7.626;2022-11-04T14:02:45;21.50;99.90
2363;DHT22;64265;51.664;7.626;2022-11-04T14:08:22;21.60;99.90
2363;DHT22;64265;51.664;7.626;2022-11-04T14:11:16;21.60;99.90
2363;DHT22;64265;51.664;7.626;2022-11-04T14:14:02;21.60;99.90
2363;DHT22;64265;51.664;7.626;2022-11-04T14:16:39;21.60;99.90
2363;DHT22;64265;51.664;7.626;2022-11-04T14:22:29;21.60;99.90
2363;DHT22;64265;51.664;7.626;2022-11-04T14:25:00;21.70;99.90
2363;DHT22;64265;51.664;7.626;2022-11-04T14:27:33;21.70;99.90
2363;DHT22;64265;51.664;7.626;2022-11-04T14:30:02;21.70;99.90
2363;DHT22;64265;51.664;7.626;2022-11-04T14:32:33;21.70;99.90
2363;DHT22;64265;51.664;7.626;2022-11-04T14:35:03;21.70;99.90
2363;DHT22;64265;51.664;7.626;2022-11-04T14:37:33;21.70;99.90
2363;DHT22;64265;51.664;7.626;2022-11-04T14:40:04;21.70;99.90
2363;DHT22;64265;51.664;7.626;2022-11-04T14:42:44;19.70;93.90
2363;DHT22;64265;51.664;7.626;2022-11-04T14:45:16;17.40;99.90
2363;DHT22;64265;51.664;7.626;2022-11-04T14:47:47;16.80;99.90
2363;DHT22;64265;51.664;7.626;2022-11-04T14:50:19;16.80;99.90
2363;DHT22;64265;51.664;7.626;2022-11-04T14:52:48;16.60;99.90
2363;DHT22;64265;51.664;7.626;2022-11-04T14:55:20;16.30;99.90
2363;DHT22;64265;51.664;7.626;2022-11-04T14:57:48;16.60;99.90
2363;DHT22;64265;51.664;7.626;2022-11-04T15:00:28;16.40;99.90
2363;DHT22;64265;51.664;7.626;2022-11-04T15:03:03;16.40;99.90
2363;DHT22;64265;51.664;7.626;2022-11-04T15:05:31;16.20;99.90
2363;DHT22;64265;51.664;7.626;2022-11-04T15:08:01;16.20;99.90
2363;DHT22;64265;51.664;7.626;2022-11-04T15:10:29;16.00;99.90
2363;DHT22;64265;51.664;7.626;2022-11-04T15:12:59;17.00;99.90
2363;DHT22;64265;51.664;7.626;2022-11-04T15:15:32;18.50;99.90
2363;DHT22;64265;51.664;7.626;2022-11-04T15:18:03;19.50;99.90
2363;DHT22;64265;51.664;7.626;2022-11-04T15:20:31;20.10;99.90
2363;DHT22;64265;51.664;7.626;2022-11-04T15:23:01;20.50;99.90
2363;DHT22;64265;51.664;7.626;2022-11-04T15:25:30;20.70;99.90
2363;DHT22;64265;51.664;7.626;2022-11-04T15:27:57;20.80;99.90
2363;DHT22;64265;51.664;7.626;2022-11-04T15:30:27;20.70;99.90
2363;DHT22;64265;51.664;7.626;2022-11-04T15:32:55;20.70;99.90
2363;DHT22;64265;51.664;7.626;2022-11-04T15:35:23;20.90;99.90
2363;DHT22;64265;51.664;7.626;2022-11-04T15:37:50;21.00;99.90
2363;DHT22;64265;51.664;7.626;2022-11-04T15:40:19;21.00;99.90
2363;DHT22;64265;51.664;7.626;2022-11-04T15:42:48;21.10;99.90
2363;DHT22;64265;51.664;7.626;2022-11-04T15:45:31;21.10;99.90
2363;DHT22;64265;51.664;7.626;2022-11-04T15:51:12;21.20;99.90
2363;DHT22;64265;51.664;7.626;2022-11-04T15:53:47;21.30;99.90
2363;DHT22;64265;51.664;7.626;2022-11-04T15:56:16;21.30;99.90
2363;DHT22;64265;51.664;7.626;2022-11-04T15:58:46;21.40;99.90
2363;DHT22;64265;51.664;7.626;2022-11-04T16:01:14;21.40;99.90
2363;DHT22;64265;51.664;7.626;2022-11-04T16:03:50;21.40;99.90
2363;DHT22;64265;51.664;7.626;2022-11-04T16:06:31;21.40;99.90
2363;DHT22;64265;51.664;7.626;2022-11-04T16:09:01;21.50;99.90
2363;DHT22;64265;51.664;7.626;2022-11-04T16:11:28;21.50;99.90
2363;DHT22;64265;51.664;7.626;2022-11-04T16:14:17;21.50;99.90
2363;DHT22;64265;51.664;7.626;2022-11-04T16:16:48;21.50;99.90
2363;DHT22;64265;51.664;7.626;2022-11-04T16:19:17;21.50;99.90
2363;DHT22;64265;51.664;7.626;2022-11-04T16:21:45;21.50;99.90
2363;DHT22;64265;51.664;7.626;2022-11-04T16:24:17;21.50;99.90
2363;DHT22;64265;51.664;7.626;2022-11-04T16:26:45;21.60;99.90